CheckWX is a tool to help pilots better visualize weather data.  It is not intended as a substitute for an official pre-flight weather briefing.

06:06:01 UTC

KLFK TAF
Angelina County Airport
Lufkin, Texas, USA
KLFK 240539Z 2406/2506 14004KT P6SM BKN250 TEMPO 2406/2409 BKN009 FM240900 12004KT 5SM BR OVC010 FM241200 13004KT 5SM BR BKN007 OVC015 FM241500 15006KT P6SM OVC015 FM241800 17007KT P6SM VCTS BKN020 OVC030CB FM250000 14007KT 5SM -TSRA OVC025CB

Apr-24@
06:00 UTC

Apr-24 @ 06:00 UTC

Apr-24@
09:00 UTC

Apr-24 @ 09:00 UTC

KLFK 240539Z 2406/2506 14004KT P6SM BKN250
Wind
  • 140° at 4 KTS
Cloud Levels
  • Broken at 25,000' AGL

Apr-24@
06:00 UTC

Apr-24 @ 06:00 UTC

Apr-24@
09:00 UTC

Apr-24 @ 09:00 UTC

TEMPO 2406/2409 BKN009

Temporary

Temporary Changes expected for less than half the time period

Cloud Levels
  • Broken at 900' AGL

Apr-24@
09:00 UTC

Apr-24 @ 09:00 UTC

Apr-24@
12:00 UTC

Apr-24 @ 12:00 UTC

FM240900 12004KT 5SM BR OVC010

From

From Standard forecast or significant change

Wind
  • 120° at 4 KTS
Conditions
Mist
Cloud Levels
  • Overcast at 1,000' AGL

Apr-24@
12:00 UTC

Apr-24 @ 12:00 UTC

Apr-24@
15:00 UTC

Apr-24 @ 15:00 UTC

FM241200 13004KT 5SM BR BKN007 OVC015

From

From Standard forecast or significant change

Wind
  • 130° at 4 KTS
Conditions
Mist
Cloud Levels
  • Broken at 700' AGL
  • Overcast at 1,500' AGL

Apr-24@
15:00 UTC

Apr-24 @ 15:00 UTC

Apr-24@
18:00 UTC

Apr-24 @ 18:00 UTC

FM241500 15006KT P6SM OVC015

From

From Standard forecast or significant change

Wind
  • 150° at 6 KTS
Cloud Levels
  • Overcast at 1,500' AGL

Apr-24@
18:00 UTC

Apr-24 @ 18:00 UTC

Apr-25@
00:00 UTC

Apr-25 @ 00:00 UTC

FM241800 17007KT P6SM VCTS BKN020 OVC030CB

From

From Standard forecast or significant change

Wind
  • 170° at 7 KTS
Conditions
Area Thunderstorm
Cloud Levels
  • Broken at 2,000' AGL
  • Overcast at 3,000' AGL

Apr-25@
00:00 UTC

Apr-25 @ 00:00 UTC

Apr-25@
06:00 UTC

Apr-25 @ 06:00 UTC

FM250000 14007KT 5SM -TSRA OVC025CB

From

From Standard forecast or significant change

Wind
  • 140° at 7 KTS
Conditions
Light Thunderstorm, Light Rain
Cloud Levels
  • Overcast at 2,500' AGL